Date,TemperatureHighF,TemperatureAvgF,TemperatureLowF,DewpointHighF,DewpointAvgF,DewpointLowF,HumidityHigh,HumidityAvg,HumidityLow,PressureMaxIn,PressureMinIn,WindSpeedMaxMPH,WindSpeedAvgMPH,GustSpeedMaxMPH,PrecipitationSumIn
2013-3-1,39.1,31.4,26.0,27.4,24.2,20.2,88,75,48,29.81,29.37,0,0,0,0.00
2013-3-2,36.8,33.1,26.9,32.4,27.3,24.5,95,79,63,29.81,29.71,0,0,0,0.00
2013-3-3,39.3,36.9,34.5,38.6,35.7,32.5,97,95,90,30.08,29.69,0,0,0,0.06
2013-3-4,39.9,38.8,36.5,38.9,37.4,34.2,96,94,90,30.24,30.08,0,0,0,0.03
2013-3-5,41.0,37.4,36.3,36.8,35.0,34.0,94,90,82,30.15,29.78,0,0,0,0.00
2013-3-6,42.5,38.3,35.6,39.2,36.2,34.1,96,91,80,29.79,29.51,0,0,0,0.00
2013-3-7,39.8,36.9,32.3,39.0,34.4,31.8,98,90,79,29.51,29.04,0,0,0,0.06
2013-3-8,39.0,36.9,34.6,35.8,33.0,29.8,92,85,70,29.57,29.26,0,0,0,0.00
2013-3-9,37.7,33.9,30.0,32.6,29.2,22.9,94,82,71,30.09,29.57,0,0,0,0.00
2013-3-10,41.2,33.8,27.7,30.4,24.1,18.8,82,67,48,30.12,29.97,0,0,0,0.00
2013-3-11,38.8,33.4,28.9,24.6,21.1,17.5,71,60,48,30.17,30.09,0,0,0,0.00
2013-3-12,37.2,33.1,29.7,24.8,18.8,8.6,77,56,31,30.09,29.85,0,0,0,0.00
2013-3-13,36.5,29.5,24.5,27.4,20.5,13.7,94,70,41,29.84,29.59,0,0,0,0.00
2013-3-14,34.9,28.7,21.6,32.3,24.9,18.9,96,86,60,29.59,29.51,0,0,0,0.00
2013-3-15,37.4,30.7,25.8,31.4,27.5,22.2,98,88,76,29.70,29.51,0,0,0,0.00
2013-3-16,37.8,29.9,23.5,26.9,23.4,20.2,87,77,56,30.03,29.70,0,0,0,0.00
2013-3-17,39.3,32.4,27.5,23.8,21.1,17.4,78,63,45,30.10,29.98,0,0,0,0.00
2013-3-18,35.0,31.1,25.7,25.0,19.3,12.4,78,61,42,29.98,29.80,0,0,0,0.00
2013-3-19,34.0,27.7,24.1,18.5,14.0,7.7,71,56,43,29.80,29.77,0,0,0,0.00
2013-3-20,37.0,28.9,23.5,17.3,11.6,4.4,62,48,33,29.95,29.79,0,0,0,0.00
2013-3-21,38.6,31.7,23.9,24.5,16.8,11.2,71,54,38,30.10,29.95,0,0,0,0.00
2013-3-22,40.6,37.1,33.8,33.6,30.1,24.2,88,75,63,29.99,29.75,0,0,0,0.00
2013-3-23,41.5,34.6,30.5,32.7,29.3,23.9,96,81,57,29.77,29.61,0,0,0,0.00
2013-3-24,33.0,30.6,24.6,32.4,29.4,21.4,97,95,86,29.61,29.47,0,0,0,0.02
2013-3-25,25.7,19.6,12.9,23.2,12.4,2.6,90,73,54,29.79,29.50,0,0,0,0.01
2013-3-26,30.1,20.8,11.9,18.8,10.4,2.2,85,65,34,30.03,29.79,0,0,0,0.00
2013-3-27,37.8,29.8,20.2,34.9,26.5,16.8,95,87,75,30.03,29.89,0,0,0,0.00
2013-3-28,38.7,36.7,35.0,37.8,35.3,33.7,96,94,91,29.89,29.51,0,0,0,0.03
2013-3-29,45.7,37.6,33.2,38.4,35.0,31.9,97,90,65,29.84,29.53,0,0,0,0.00
2013-3-30,45.3,38.2,33.0,36.3,33.5,31.7,96,83,61,30.07,29.84,0,0,0,0.00
2013-3-31,41.6,35.0,29.9,34.6,32.0,29.2,97,89,69,30.09,30.03,0,0,0,0.00